메인 페이지
METAR-TAF:

METAR-TAF

공항 :

은남디 아지키웨 국제공항

아부자, 나이지리아

위도: 9-00-24N, 경도: 7-15-47E, 고도: 342m

METAR: 누락

시각: 10:34 (09:34 UTC)

예보

예보는 28 시간 34분 전, 05:00시(UTC)에 발표되었습니다.
예보 대상 시간: 31일 06시부터 01일 12시까지 (UTC)
동남동2kt
시정 10km 이상
고도 800ft 상공 구름 보통
전환 중
31일 08시부터 31일 10시까지 (UTC)
서남서10kt
고도 1100ft 상공 구름 많음
일시적
31일 15시부터 31일 20시까지 (UTC)
고도 1200ft 상공 구름 보통
고도 2000ft 상공 구름 조금, 적란운.
뇌우
확률 30%
31일 16시부터 31일 19시까지 (UTC)
동북동20kt, 순간 최대 풍속 35kt
고도 900ft 상공 구름 많음
고도 1900ft 상공 구름 조금, 적란운.
전환 중
31일 20시부터 31일 22시까지 (UTC)
남동3kt
시정 10km 이상
1500m 미만 상공 구름 및 적란운 없음

TAF: DNAA 310500Z 3106/0112 12002KT 9999 SCT008 BECMG 3108/3110 24010KT BKN011 TEMPO 3115/3120 TS SCT012 FEW020CB PROB30 3116/3119 06020G35KT 5000-TSRA BKN009 FEW019CB BECMG 3120/3122 14003KT CAVOK

4,000개 이상의 공항 관측 자료 및 예보 (METAR 및 TAF 보고).

지도상에서 검색 가능한 기상관측소가 노란 점과 빨간 점으로 표시되어 있습니다.

기상관측소 명을 보려면 표시 위로 마우스를 이동하세요.

날씨 관측과 예보를 보려면 클릭하세요.

지도 변경 : 확대하려면 엑스 표시가 있는 녹색 버튼, 축소하려면 빼기 표시가 있는 녹색 버튼, 다음 페이지의 지도를 보려면 녹색 화살표를 클릭하세요.


METAR-TAF: